sensor_id;sensor_type;location;lat;lon;timestamp;P1;durP1;ratioP1;P2;durP2;ratioP2
66127;SDS011;52925;52.436;-1.952;2023-09-08T00:00:16;10.90;;;9.77;;
66127;SDS011;52925;52.436;-1.952;2023-09-08T00:01:37;10.00;;;9.00;;
66127;SDS011;52925;52.436;-1.952;2023-09-08T00:02:57;9.00;;;8.20;;
66127;SDS011;52925;52.436;-1.952;2023-09-08T00:04:18;11.67;;;9.30;;
66127;SDS011;52925;52.436;-1.952;2023-09-08T00:05:39;10.33;;;9.23;;
66127;SDS011;52925;52.436;-1.952;2023-09-08T00:07:02;12.43;;;9.53;;
66127;SDS011;52925;52.436;-1.952;2023-09-08T00:08:23;11.00;;;8.87;;
66127;SDS011;52925;52.436;-1.952;2023-09-08T00:09:44;9.50;;;8.60;;
66127;SDS011;52925;52.436;-1.952;2023-09-08T00:11:04;9.90;;;9.00;;
66127;SDS011;52925;52.436;-1.952;2023-09-08T00:12:26;9.53;;;8.53;;
66127;SDS011;52925;52.436;-1.952;2023-09-08T00:13:46;9.70;;;8.70;;
66127;SDS011;52925;52.436;-1.952;2023-09-08T00:15:09;12.47;;;8.40;;
66127;SDS011;52925;52.436;-1.952;2023-09-08T00:16:30;13.17;;;9.13;;
66127;SDS011;52925;52.436;-1.952;2023-09-08T00:17:51;10.80;;;8.80;;
66127;SDS011;52925;52.436;-1.952;2023-09-08T00:19:11;10.30;;;8.80;;
66127;SDS011;52925;52.436;-1.952;2023-09-08T00:20:32;9.90;;;8.80;;
66127;SDS011;52925;52.436;-1.952;2023-09-08T00:21:52;11.03;;;9.30;;
66127;SDS011;52925;52.436;-1.952;2023-09-08T00:23:14;10.80;;;9.10;;
66127;SDS011;52925;52.436;-1.952;2023-09-08T00:24:34;10.60;;;9.00;;
66127;SDS011;52925;52.436;-1.952;2023-09-08T00:25:55;9.60;;;7.73;;
66127;SDS011;52925;52.436;-1.952;2023-09-08T00:27:15;10.37;;;8.50;;
66127;SDS011;52925;52.436;-1.952;2023-09-08T00:28:36;10.60;;;8.17;;
66127;SDS011;52925;52.436;-1.952;2023-09-08T00:29:56;10.50;;;8.70;;
66127;SDS011;52925;52.436;-1.952;2023-09-08T00:31:16;9.73;;;8.73;;
66127;SDS011;52925;52.436;-1.952;2023-09-08T00:32:37;9.30;;;8.30;;
66127;SDS011;52925;52.436;-1.952;2023-09-08T00:33:58;9.40;;;8.50;;
66127;SDS011;52925;52.436;-1.952;2023-09-08T00:35:18;9.60;;;8.60;;
66127;SDS011;52925;52.436;-1.952;2023-09-08T00:36:39;10.33;;;8.40;;
66127;SDS011;52925;52.436;-1.952;2023-09-08T00:37:59;10.33;;;8.33;;
66127;SDS011;52925;52.436;-1.952;2023-09-08T00:39:21;9.13;;;8.20;;
66127;SDS011;52925;52.436;-1.952;2023-09-08T00:40:41;9.07;;;8.17;;
66127;SDS011;52925;52.436;-1.952;2023-09-08T00:42:02;9.70;;;8.70;;
66127;SDS011;52925;52.436;-1.952;2023-09-08T00:43:22;10.20;;;8.30;;
66127;SDS011;52925;52.436;-1.952;2023-09-08T00:44:43;9.43;;;8.57;;
66127;SDS011;52925;52.436;-1.952;2023-09-08T00:46:03;10.23;;;8.50;;
66127;SDS011;52925;52.436;-1.952;2023-09-08T00:47:24;11.97;;;8.97;;
66127;SDS011;52925;52.436;-1.952;2023-09-08T00:48:44;8.80;;;7.90;;
66127;SDS011;52925;52.436;-1.952;2023-09-08T00:50:06;8.80;;;7.83;;
66127;SDS011;52925;52.436;-1.952;2023-09-08T00:51:26;9.97;;;8.43;;
66127;SDS011;52925;52.436;-1.952;2023-09-08T00:52:48;9.93;;;8.77;;
66127;SDS011;52925;52.436;-1.952;2023-09-08T00:54:08;9.70;;;8.83;;
66127;SDS011;52925;52.436;-1.952;2023-09-08T00:55:31;9.53;;;8.60;;
66127;SDS011;52925;52.436;-1.952;2023-09-08T00:56:51;11.43;;;8.83;;
66127;SDS011;52925;52.436;-1.952;2023-09-08T00:58:16;9.37;;;8.43;;
66127;SDS011;52925;52.436;-1.952;2023-09-08T00:59:36;10.33;;;9.23;;
66127;SDS011;52925;52.436;-1.952;2023-09-08T01:00:58;10.13;;;9.17;;
66127;SDS011;52925;52.436;-1.952;2023-09-08T01:02:17;11.03;;;8.70;;
66127;SDS011;52925;52.436;-1.952;2023-09-08T01:03:39;11.33;;;8.90;;
66127;SDS011;52925;52.436;-1.952;2023-09-08T01:04:59;9.07;;;8.27;;
66127;SDS011;52925;52.436;-1.952;2023-09-08T01:06:21;9.27;;;8.47;;
66127;SDS011;52925;52.436;-1.952;2023-09-08T01:07:41;9.80;;;8.43;;
66127;SDS011;52925;52.436;-1.952;2023-09-08T01:09:02;9.43;;;8.50;;
66127;SDS011;52925;52.436;-1.952;2023-09-08T01:10:23;9.40;;;8.33;;
66127;SDS011;52925;52.436;-1.952;2023-09-08T01:11:46;10.13;;;9.03;;
66127;SDS011;52925;52.436;-1.952;2023-09-08T01:13:08;9.40;;;8.50;;
66127;SDS011;52925;52.436;-1.952;2023-09-08T01:14:29;10.03;;;9.03;;
66127;SDS011;52925;52.436;-1.952;2023-09-08T01:15:49;11.07;;;9.00;;
66127;SDS011;52925;52.436;-1.952;2023-09-08T01:17:10;9.93;;;8.93;;
66127;SDS011;52925;52.436;-1.952;2023-09-08T01:18:31;9.70;;;8.80;;
66127;SDS011;52925;52.436;-1.952;2023-09-08T01:19:52;10.70;;;9.03;;
66127;SDS011;52925;52.436;-1.952;2023-09-08T01:21:33;10.57;;;9.50;;
66127;SDS011;52925;52.436;-1.952;2023-09-08T01:23:17;10.07;;;9.17;;
66127;SDS011;52925;52.436;-1.952;2023-09-08T01:26:40;10.53;;;9.43;;
66127;SDS011;52925;52.436;-1.952;2023-09-08T01:28:02;10.17;;;8.50;;
66127;SDS011;52925;52.436;-1.952;2023-09-08T01:29:24;9.97;;;9.00;;
66127;SDS011;52925;52.436;-1.952;2023-09-08T01:30:47;9.73;;;8.73;;
66127;SDS011;52925;52.436;-1.952;2023-09-08T01:32:07;10.40;;;9.20;;
66127;SDS011;52925;52.436;-1.952;2023-09-08T01:33:29;10.53;;;8.87;;
66127;SDS011;52925;52.436;-1.952;2023-09-08T01:34:50;10.10;;;8.77;;
66127;SDS011;52925;52.436;-1.952;2023-09-08T01:36:11;10.33;;;8.90;;
66127;SDS011;52925;52.436;-1.952;2023-09-08T01:37:33;9.57;;;8.53;;
66127;SDS011;52925;52.436;-1.952;2023-09-08T01:38:53;10.23;;;9.30;;
66127;SDS011;52925;52.436;-1.952;2023-09-08T01:40:14;11.17;;;8.97;;
66127;SDS011;52925;52.436;-1.952;2023-09-08T01:41:34;9.03;;;8.23;;
66127;SDS011;52925;52.436;-1.952;2023-09-08T01:42:57;9.47;;;8.47;;
66127;SDS011;52925;52.436;-1.952;2023-09-08T01:44:18;10.00;;;9.03;;
66127;SDS011;52925;52.436;-1.952;2023-09-08T01:45:38;9.43;;;8.53;;
66127;SDS011;52925;52.436;-1.952;2023-09-08T01:46:59;9.63;;;8.73;;
66127;SDS011;52925;52.436;-1.952;2023-09-08T01:48:18;10.10;;;9.00;;
66127;SDS011;52925;52.436;-1.952;2023-09-08T01:49:39;9.77;;;8.87;;
66127;SDS011;52925;52.436;-1.952;2023-09-08T01:50:59;9.27;;;8.30;;
66127;SDS011;52925;52.436;-1.952;2023-09-08T01:52:20;10.27;;;9.17;;
66127;SDS011;52925;52.436;-1.952;2023-09-08T01:53:40;10.80;;;9.67;;
66127;SDS011;52925;52.436;-1.952;2023-09-08T01:55:03;10.77;;;9.77;;
66127;SDS011;52925;52.436;-1.952;2023-09-08T01:56:23;11.17;;;10.07;;
66127;SDS011;52925;52.436;-1.952;2023-09-08T01:57:45;10.53;;;9.00;;
66127;SDS011;52925;52.436;-1.952;2023-09-08T01:59:07;13.17;;;9.53;;
66127;SDS011;52925;52.436;-1.952;2023-09-08T02:00:28;10.27;;;9.33;;
66127;SDS011;52925;52.436;-1.952;2023-09-08T02:01:48;10.70;;;9.60;;
66127;SDS011;52925;52.436;-1.952;2023-09-08T02:03:08;10.77;;;9.30;;
66127;SDS011;52925;52.436;-1.952;2023-09-08T02:04:29;10.80;;;9.70;;
66127;SDS011;52925;52.436;-1.952;2023-09-08T02:05:50;9.77;;;8.87;;
66127;SDS011;52925;52.436;-1.952;2023-09-08T02:07:10;10.60;;;9.50;;
66127;SDS011;52925;52.436;-1.952;2023-09-08T02:08:30;9.77;;;8.83;;
66127;SDS011;52925;52.436;-1.952;2023-09-08T02:09:51;10.53;;;9.43;;
66127;SDS011;52925;52.436;-1.952;2023-09-08T02:11:12;10.90;;;9.90;;
66127;SDS011;52925;52.436;-1.952;2023-09-08T02:12:33;10.47;;;9.47;;
66127;SDS011;52925;52.436;-1.952;2023-09-08T02:13:53;9.93;;;8.93;;
66127;SDS011;52925;52.436;-1.952;2023-09-08T02:15:15;11.40;;;9.33;;
66127;SDS011;52925;52.436;-1.952;2023-09-08T02:16:35;10.77;;;9.77;;
66127;SDS011;52925;52.436;-1.952;2023-09-08T02:17:56;10.77;;;9.67;;
66127;SDS011;52925;52.436;-1.952;2023-09-08T02:19:16;11.17;;;9.83;;
66127;SDS011;52925;52.436;-1.952;2023-09-08T02:20:36;10.27;;;9.27;;
66127;SDS011;52925;52.436;-1.952;2023-09-08T02:21:56;11.40;;;9.30;;
66127;SDS011;52925;52.436;-1.952;2023-09-08T02:23:17;11.50;;;10.30;;
66127;SDS011;52925;52.436;-1.952;2023-09-08T02:24:37;10.13;;;9.10;;
66127;SDS011;52925;52.436;-1.952;2023-09-08T02:25:58;11.27;;;10.17;;
66127;SDS011;52925;52.436;-1.952;2023-09-08T02:27:18;10.27;;;9.30;;
66127;SDS011;52925;52.436;-1.952;2023-09-08T02:28:42;11.97;;;10.47;;
66127;SDS011;52925;52.436;-1.952;2023-09-08T02:30:02;10.20;;;9.20;;
66127;SDS011;52925;52.436;-1.952;2023-09-08T02:31:25;12.30;;;10.83;;
66127;SDS011;52925;52.436;-1.952;2023-09-08T02:32:45;12.03;;;10.83;;
66127;SDS011;52925;52.436;-1.952;2023-09-08T02:34:07;11.40;;;10.30;;
66127;SDS011;52925;52.436;-1.952;2023-09-08T02:35:26;11.70;;;10.50;;
66127;SDS011;52925;52.436;-1.952;2023-09-08T02:36:49;12.07;;;10.87;;
66127;SDS011;52925;52.436;-1.952;2023-09-08T02:38:14;11.77;;;10.13;;
66127;SDS011;52925;52.436;-1.952;2023-09-08T02:39:34;11.83;;;10.63;;
66127;SDS011;52925;52.436;-1.952;2023-09-08T02:40:54;11.73;;;10.57;;
66127;SDS011;52925;52.436;-1.952;2023-09-08T02:42:15;11.57;;;10.47;;
66127;SDS011;52925;52.436;-1.952;2023-09-08T02:43:35;11.37;;;10.20;;
66127;SDS011;52925;52.436;-1.952;2023-09-08T02:44:56;12.73;;;10.37;;
66127;SDS011;52925;52.436;-1.952;2023-09-08T02:46:16;12.17;;;11.07;;
66127;SDS011;52925;52.436;-1.952;2023-09-08T02:47:38;11.20;;;10.10;;
66127;SDS011;52925;52.436;-1.952;2023-09-08T02:48:58;12.67;;;10.73;;
66127;SDS011;52925;52.436;-1.952;2023-09-08T02:50:20;11.67;;;10.47;;
66127;SDS011;52925;52.436;-1.952;2023-09-08T02:51:40;11.20;;;10.00;;
66127;SDS011;52925;52.436;-1.952;2023-09-08T02:53:01;11.87;;;10.17;;
66127;SDS011;52925;52.436;-1.952;2023-09-08T02:54:21;13.07;;;10.20;;
66127;SDS011;52925;52.436;-1.952;2023-09-08T02:55:42;11.73;;;10.37;;
66127;SDS011;52925;52.436;-1.952;2023-09-08T02:57:02;11.07;;;9.93;;
66127;SDS011;52925;52.436;-1.952;2023-09-08T02:58:23;11.30;;;10.10;;
66127;SDS011;52925;52.436;-1.952;2023-09-08T02:59:43;10.83;;;9.83;;
66127;SDS011;52925;52.436;-1.952;2023-09-08T03:01:10;12.83;;;10.67;;
66127;SDS011;52925;52.436;-1.952;2023-09-08T03:02:32;10.93;;;9.93;;
66127;SDS011;52925;52.436;-1.952;2023-09-08T03:03:54;11.70;;;10.50;;
66127;SDS011;52925;52.436;-1.952;2023-09-08T03:05:14;12.70;;;11.20;;
66127;SDS011;52925;52.436;-1.952;2023-09-08T03:06:35;11.37;;;10.27;;
66127;SDS011;52925;52.436;-1.952;2023-09-08T03:07:55;12.20;;;10.97;;
66127;SDS011;52925;52.436;-1.952;2023-09-08T03:09:16;11.43;;;10.23;;
66127;SDS011;52925;52.436;-1.952;2023-09-08T03:10:40;11.80;;;10.50;;
66127;SDS011;52925;52.436;-1.952;2023-09-08T03:12:01;11.80;;;10.70;;
66127;SDS011;52925;52.436;-1.952;2023-09-08T03:13:22;12.10;;;10.90;;
66127;SDS011;52925;52.436;-1.952;2023-09-08T03:14:44;14.27;;;10.63;;
66127;SDS011;52925;52.436;-1.952;2023-09-08T03:16:04;11.77;;;10.60;;
66127;SDS011;52925;52.436;-1.952;2023-09-08T03:17:26;11.97;;;10.77;;
66127;SDS011;52925;52.436;-1.952;2023-09-08T03:18:46;11.37;;;10.37;;
66127;SDS011;52925;52.436;-1.952;2023-09-08T03:20:10;10.90;;;9.90;;
66127;SDS011;52925;52.436;-1.952;2023-09-08T03:21:32;11.07;;;10.07;;
66127;SDS011;52925;52.436;-1.952;2023-09-08T03:22:52;11.53;;;10.37;;
66127;SDS011;52925;52.436;-1.952;2023-09-08T03:24:12;12.97;;;11.23;;
66127;SDS011;52925;52.436;-1.952;2023-09-08T03:25:34;12.27;;;11.07;;
66127;SDS011;52925;52.436;-1.952;2023-09-08T03:26:53;12.03;;;10.83;;
66127;SDS011;52925;52.436;-1.952;2023-09-08T03:28:15;11.80;;;10.60;;
66127;SDS011;52925;52.436;-1.952;2023-09-08T03:29:35;11.70;;;10.63;;
66127;SDS011;52925;52.436;-1.952;2023-09-08T03:30:56;12.13;;;10.93;;
66127;SDS011;52925;52.436;-1.952;2023-09-08T03:32:15;11.97;;;10.87;;
66127;SDS011;52925;52.436;-1.952;2023-09-08T03:33:36;12.80;;;11.60;;
66127;SDS011;52925;52.436;-1.952;2023-09-08T03:34:58;11.93;;;10.83;;
66127;SDS011;52925;52.436;-1.952;2023-09-08T03:36:21;11.93;;;10.67;;
66127;SDS011;52925;52.436;-1.952;2023-09-08T03:37:43;12.43;;;11.03;;
66127;SDS011;52925;52.436;-1.952;2023-09-08T03:39:03;12.47;;;10.80;;
66127;SDS011;52925;52.436;-1.952;2023-09-08T03:40:24;12.07;;;10.97;;
66127;SDS011;52925;52.436;-1.952;2023-09-08T03:41:44;11.77;;;10.67;;
66127;SDS011;52925;52.436;-1.952;2023-09-08T03:43:05;11.80;;;10.47;;
66127;SDS011;52925;52.436;-1.952;2023-09-08T03:44:25;12.23;;;10.97;;
66127;SDS011;52925;52.436;-1.952;2023-09-08T03:45:47;12.00;;;10.90;;
66127;SDS011;52925;52.436;-1.952;2023-09-08T03:47:07;11.37;;;10.37;;
66127;SDS011;52925;52.436;-1.952;2023-09-08T03:48:29;11.60;;;10.53;;
66127;SDS011;52925;52.436;-1.952;2023-09-08T03:49:49;11.53;;;10.53;;
66127;SDS011;52925;52.436;-1.952;2023-09-08T03:51:10;12.10;;;10.93;;
66127;SDS011;52925;52.436;-1.952;2023-09-08T03:52:31;11.20;;;10.10;;
66127;SDS011;52925;52.436;-1.952;2023-09-08T03:53:52;11.87;;;10.77;;
66127;SDS011;52925;52.436;-1.952;2023-09-08T03:55:13;11.73;;;10.53;;
66127;SDS011;52925;52.436;-1.952;2023-09-08T03:56:34;12.10;;;10.90;;
66127;SDS011;52925;52.436;-1.952;2023-09-08T03:57:53;11.50;;;10.40;;
66127;SDS011;52925;52.436;-1.952;2023-09-08T03:59:15;11.03;;;10.03;;
66127;SDS011;52925;52.436;-1.952;2023-09-08T04:00:35;12.27;;;10.97;;
66127;SDS011;52925;52.436;-1.952;2023-09-08T04:01:56;11.67;;;10.57;;
66127;SDS011;52925;52.436;-1.952;2023-09-08T04:03:16;12.00;;;10.73;;
66127;SDS011;52925;52.436;-1.952;2023-09-08T04:04:37;12.07;;;10.93;;
66127;SDS011;52925;52.436;-1.952;2023-09-08T04:05:57;12.90;;;11.60;;
66127;SDS011;52925;52.436;-1.952;2023-09-08T04:07:18;12.80;;;11.53;;
66127;SDS011;52925;52.436;-1.952;2023-09-08T04:08:39;12.17;;;11.03;;
66127;SDS011;52925;52.436;-1.952;2023-09-08T04:10:00;12.90;;;11.60;;
66127;SDS011;52925;52.436;-1.952;2023-09-08T04:11:21;12.70;;;11.43;;
66127;SDS011;52925;52.436;-1.952;2023-09-08T04:12:42;12.60;;;11.40;;
66127;SDS011;52925;52.436;-1.952;2023-09-08T04:14:03;12.70;;;11.50;;
66127;SDS011;52925;52.436;-1.952;2023-09-08T04:15:22;13.07;;;11.77;;
66127;SDS011;52925;52.436;-1.952;2023-09-08T04:16:43;13.60;;;12.20;;
66127;SDS011;52925;52.436;-1.952;2023-09-08T04:18:03;13.90;;;12.60;;
66127;SDS011;52925;52.436;-1.952;2023-09-08T04:19:25;13.90;;;12.60;;
66127;SDS011;52925;52.436;-1.952;2023-09-08T04:20:45;13.67;;;12.30;;
66127;SDS011;52925;52.436;-1.952;2023-09-08T04:22:06;13.37;;;12.07;;
66127;SDS011;52925;52.436;-1.952;2023-09-08T04:23:26;13.97;;;12.57;;
66127;SDS011;52925;52.436;-1.952;2023-09-08T04:24:48;13.93;;;12.33;;
66127;SDS011;52925;52.436;-1.952;2023-09-08T04:26:08;14.70;;;13.30;;
66127;SDS011;52925;52.436;-1.952;2023-09-08T04:27:30;16.97;;;13.80;;
66127;SDS011;52925;52.436;-1.952;2023-09-08T04:28:49;14.77;;;13.33;;
66127;SDS011;52925;52.436;-1.952;2023-09-08T04:30:12;14.57;;;13.17;;
66127;SDS011;52925;52.436;-1.952;2023-09-08T04:31:32;15.83;;;14.23;;
66127;SDS011;52925;52.436;-1.952;2023-09-08T04:32:53;14.80;;;13.30;;
66127;SDS011;52925;52.436;-1.952;2023-09-08T04:34:13;13.77;;;12.47;;
66127;SDS011;52925;52.436;-1.952;2023-09-08T04:35:34;14.47;;;12.80;;
66127;SDS011;52925;52.436;-1.952;2023-09-08T04:36:54;14.20;;;12.80;;
66127;SDS011;52925;52.436;-1.952;2023-09-08T04:38:16;14.17;;;12.77;;
66127;SDS011;52925;52.436;-1.952;2023-09-08T04:39:36;14.87;;;13.47;;
66127;SDS011;52925;52.436;-1.952;2023-09-08T04:40:58;14.80;;;13.40;;
66127;SDS011;52925;52.436;-1.952;2023-09-08T04:42:18;14.57;;;13.17;;
66127;SDS011;52925;52.436;-1.952;2023-09-08T04:43:39;13.80;;;12.43;;
66127;SDS011;52925;52.436;-1.952;2023-09-08T04:44:59;14.20;;;12.80;;
66127;SDS011;52925;52.436;-1.952;2023-09-08T04:46:21;14.10;;;12.80;;
66127;SDS011;52925;52.436;-1.952;2023-09-08T04:47:41;15.77;;;13.50;;
66127;SDS011;52925;52.436;-1.952;2023-09-08T04:49:02;16.67;;;13.73;;
66127;SDS011;52925;52.436;-1.952;2023-09-08T04:50:22;15.87;;;14.17;;
66127;SDS011;52925;52.436;-1.952;2023-09-08T04:51:43;15.90;;;14.20;;
66127;SDS011;52925;52.436;-1.952;2023-09-08T04:53:04;15.30;;;13.77;;
66127;SDS011;52925;52.436;-1.952;2023-09-08T04:54:25;14.93;;;13.43;;
66127;SDS011;52925;52.436;-1.952;2023-09-08T04:55:47;17.43;;;15.73;;
66127;SDS011;52925;52.436;-1.952;2023-09-08T04:57:10;14.73;;;13.23;;
66127;SDS011;52925;52.436;-1.952;2023-09-08T04:58:30;16.10;;;14.40;;
66127;SDS011;52925;52.436;-1.952;2023-09-08T04:59:51;15.90;;;14.30;;
66127;SDS011;52925;52.436;-1.952;2023-09-08T05:01:10;17.27;;;15.57;;
66127;SDS011;52925;52.436;-1.952;2023-09-08T05:02:31;16.77;;;15.13;;
66127;SDS011;52925;52.436;-1.952;2023-09-08T05:03:51;17.70;;;15.93;;
66127;SDS011;52925;52.436;-1.952;2023-09-08T05:05:12;18.27;;;16.20;;
66127;SDS011;52925;52.436;-1.952;2023-09-08T05:06:32;19.40;;;16.93;;
66127;SDS011;52925;52.436;-1.952;2023-09-08T05:07:53;18.30;;;16.40;;
66127;SDS011;52925;52.436;-1.952;2023-09-08T05:09:15;16.93;;;15.30;;
66127;SDS011;52925;52.436;-1.952;2023-09-08T05:10:36;18.17;;;16.33;;
66127;SDS011;52925;52.436;-1.952;2023-09-08T05:11:56;15.97;;;14.37;;
66127;SDS011;52925;52.436;-1.952;2023-09-08T05:13:19;15.60;;;14.03;;
66127;SDS011;52925;52.436;-1.952;2023-09-08T05:14:45;16.17;;;14.63;;
66127;SDS011;52925;52.436;-1.952;2023-09-08T05:16:06;16.30;;;14.60;;
66127;SDS011;52925;52.436;-1.952;2023-09-08T05:17:33;16.00;;;14.43;;
66127;SDS011;52925;52.436;-1.952;2023-09-08T05:18:54;16.63;;;15.03;;
66127;SDS011;52925;52.436;-1.952;2023-09-08T05:20:14;17.43;;;15.73;;
66127;SDS011;52925;52.436;-1.952;2023-09-08T05:21:35;17.60;;;15.80;;
66127;SDS011;52925;52.436;-1.952;2023-09-08T05:22:57;17.13;;;15.43;;
66127;SDS011;52925;52.436;-1.952;2023-09-08T05:24:17;17.33;;;15.57;;
66127;SDS011;52925;52.436;-1.952;2023-09-08T05:25:38;17.23;;;15.27;;
66127;SDS011;52925;52.436;-1.952;2023-09-08T05:27:00;16.33;;;14.73;;
66127;SDS011;52925;52.436;-1.952;2023-09-08T05:28:23;17.50;;;15.70;;
66127;SDS011;52925;52.436;-1.952;2023-09-08T05:29:42;16.33;;;14.73;;
66127;SDS011;52925;52.436;-1.952;2023-09-08T05:31:03;17.77;;;15.97;;
66127;SDS011;52925;52.436;-1.952;2023-09-08T05:32:23;17.87;;;15.97;;
66127;SDS011;52925;52.436;-1.952;2023-09-08T05:33:44;16.50;;;15.00;;
66127;SDS011;52925;52.436;-1.952;2023-09-08T05:35:05;17.27;;;15.33;;
66127;SDS011;52925;52.436;-1.952;2023-09-08T05:36:26;16.87;;;15.13;;
66127;SDS011;52925;52.436;-1.952;2023-09-08T05:37:48;16.13;;;14.53;;
66127;SDS011;52925;52.436;-1.952;2023-09-08T05:39:09;16.43;;;14.77;;
66127;SDS011;52925;52.436;-1.952;2023-09-08T05:40:30;17.03;;;15.33;;
66127;SDS011;52925;52.436;-1.952;2023-09-08T05:41:51;16.53;;;14.70;;
66127;SDS011;52925;52.436;-1.952;2023-09-08T05:43:11;16.23;;;14.63;;
66127;SDS011;52925;52.436;-1.952;2023-09-08T05:44:33;16.80;;;15.10;;
66127;SDS011;52925;52.436;-1.952;2023-09-08T05:45:54;16.70;;;15.07;;
66127;SDS011;52925;52.436;-1.952;2023-09-08T05:47:15;17.23;;;15.53;;
66127;SDS011;52925;52.436;-1.952;2023-09-08T05:48:35;17.20;;;15.57;;
66127;SDS011;52925;52.436;-1.952;2023-09-08T05:49:55;16.47;;;14.77;;
66127;SDS011;52925;52.436;-1.952;2023-09-08T05:51:15;17.47;;;15.77;;
66127;SDS011;52925;52.436;-1.952;2023-09-08T05:52:36;16.80;;;15.07;;
66127;SDS011;52925;52.436;-1.952;2023-09-08T05:53:56;16.60;;;14.97;;
66127;SDS011;52925;52.436;-1.952;2023-09-08T05:55:17;17.57;;;15.83;;
66127;SDS011;52925;52.436;-1.952;2023-09-08T05:56:38;16.70;;;15.00;;
66127;SDS011;52925;52.436;-1.952;2023-09-08T05:57:59;17.60;;;15.83;;
66127;SDS011;52925;52.436;-1.952;2023-09-08T05:59:19;15.53;;;14.13;;
66127;SDS011;52925;52.436;-1.952;2023-09-08T06:00:41;16.93;;;15.20;;
66127;SDS011;52925;52.436;-1.952;2023-09-08T06:02:01;16.97;;;15.17;;
66127;SDS011;52925;52.436;-1.952;2023-09-08T06:03:22;16.87;;;15.20;;
66127;SDS011;52925;52.436;-1.952;2023-09-08T06:04:42;16.30;;;14.70;;
66127;SDS011;52925;52.436;-1.952;2023-09-08T06:06:03;16.93;;;15.30;;
66127;SDS011;52925;52.436;-1.952;2023-09-08T06:07:23;17.10;;;15.30;;
66127;SDS011;52925;52.436;-1.952;2023-09-08T06:08:44;17.17;;;15.47;;
66127;SDS011;52925;52.436;-1.952;2023-09-08T06:10:04;16.73;;;14.90;;
66127;SDS011;52925;52.436;-1.952;2023-09-08T06:11:26;16.10;;;14.53;;
66127;SDS011;52925;52.436;-1.952;2023-09-08T06:12:46;16.67;;;15.07;;
66127;SDS011;52925;52.436;-1.952;2023-09-08T06:14:09;17.23;;;14.77;;
66127;SDS011;52925;52.436;-1.952;2023-09-08T06:15:32;17.53;;;15.83;;
66127;SDS011;52925;52.436;-1.952;2023-09-08T06:16:54;18.77;;;16.03;;
66127;SDS011;52925;52.436;-1.952;2023-09-08T06:18:14;16.70;;;15.10;;
66127;SDS011;52925;52.436;-1.952;2023-09-08T06:19:35;17.37;;;15.53;;
66127;SDS011;52925;52.436;-1.952;2023-09-08T06:20:55;16.20;;;14.73;;
66127;SDS011;52925;52.436;-1.952;2023-09-08T06:22:16;16.33;;;14.80;;
66127;SDS011;52925;52.436;-1.952;2023-09-08T06:23:36;16.27;;;14.67;;
66127;SDS011;52925;52.436;-1.952;2023-09-08T06:24:58;17.53;;;14.97;;
66127;SDS011;52925;52.436;-1.952;2023-09-08T06:26:17;18.00;;;15.80;;
66127;SDS011;52925;52.436;-1.952;2023-09-08T06:27:39;17.37;;;15.60;;
66127;SDS011;52925;52.436;-1.952;2023-09-08T06:28:59;17.23;;;15.33;;
66127;SDS011;52925;52.436;-1.952;2023-09-08T06:30:20;14.83;;;13.43;;
66127;SDS011;52925;52.436;-1.952;2023-09-08T06:31:41;17.23;;;15.53;;
66127;SDS011;52925;52.436;-1.952;2023-09-08T06:33:04;16.60;;;15.07;;
66127;SDS011;52925;52.436;-1.952;2023-09-08T06:34:24;18.13;;;15.93;;
66127;SDS011;52925;52.436;-1.952;2023-09-08T06:35:45;17.23;;;15.53;;
66127;SDS011;52925;52.436;-1.952;2023-09-08T06:37:05;15.83;;;14.33;;
66127;SDS011;52925;52.436;-1.952;2023-09-08T06:38:27;16.90;;;15.30;;
66127;SDS011;52925;52.436;-1.952;2023-09-08T06:39:51;16.77;;;14.97;;
66127;SDS011;52925;52.436;-1.952;2023-09-08T06:41:14;17.70;;;15.97;;
66127;SDS011;52925;52.436;-1.952;2023-09-08T06:42:34;17.70;;;15.07;;
66127;SDS011;52925;52.436;-1.952;2023-09-08T06:44:18;17.03;;;14.80;;
66127;SDS011;52925;52.436;-1.952;2023-09-08T06:45:40;16.57;;;14.90;;
66127;SDS011;52925;52.436;-1.952;2023-09-08T06:47:00;19.73;;;16.10;;
66127;SDS011;52925;52.436;-1.952;2023-09-08T06:48:24;17.00;;;15.20;;
66127;SDS011;52925;52.436;-1.952;2023-09-08T06:49:43;15.97;;;14.37;;
66127;SDS011;52925;52.436;-1.952;2023-09-08T06:51:04;14.97;;;13.47;;
66127;SDS011;52925;52.436;-1.952;2023-09-08T06:52:24;15.73;;;14.23;;
66127;SDS011;52925;52.436;-1.952;2023-09-08T06:53:49;17.03;;;15.40;;
66127;SDS011;52925;52.436;-1.952;2023-09-08T06:55:15;20.10;;;15.77;;
66127;SDS011;52925;52.436;-1.952;2023-09-08T06:56:36;16.43;;;14.73;;
66127;SDS011;52925;52.436;-1.952;2023-09-08T06:57:58;17.83;;;15.93;;
66127;SDS011;52925;52.436;-1.952;2023-09-08T06:59:18;17.37;;;15.57;;
66127;SDS011;52925;52.436;-1.952;2023-09-08T07:00:39;16.50;;;14.37;;
66127;SDS011;52925;52.436;-1.952;2023-09-08T07:01:59;16.60;;;14.50;;
66127;SDS011;52925;52.436;-1.952;2023-09-08T07:03:20;17.20;;;15.40;;
66127;SDS011;52925;52.436;-1.952;2023-09-08T07:04:42;18.33;;;16.37;;
66127;SDS011;52925;52.436;-1.952;2023-09-08T07:06:02;18.17;;;16.27;;
66127;SDS011;52925;52.436;-1.952;2023-09-08T07:07:23;17.57;;;15.83;;
66127;SDS011;52925;52.436;-1.952;2023-09-08T07:08:44;18.90;;;17.10;;
66127;SDS011;52925;52.436;-1.952;2023-09-08T07:10:05;18.27;;;16.37;;
66127;SDS011;52925;52.436;-1.952;2023-09-08T07:11:27;18.30;;;16.40;;
66127;SDS011;52925;52.436;-1.952;2023-09-08T07:12:50;16.87;;;15.27;;
66127;SDS011;52925;52.436;-1.952;2023-09-08T07:14:10;16.80;;;15.13;;
66127;SDS011;52925;52.436;-1.952;2023-09-08T07:15:31;16.10;;;14.50;;
66127;SDS011;52925;52.436;-1.952;2023-09-08T07:16:51;18.53;;;16.63;;
66127;SDS011;52925;52.436;-1.952;2023-09-08T07:18:12;16.37;;;14.73;;
66127;SDS011;52925;52.436;-1.952;2023-09-08T07:19:31;18.77;;;16.87;;
66127;SDS011;52925;52.436;-1.952;2023-09-08T07:20:53;18.97;;;17.03;;
66127;SDS011;52925;52.436;-1.952;2023-09-08T07:22:13;18.83;;;16.93;;
66127;SDS011;52925;52.436;-1.952;2023-09-08T07:23:35;17.87;;;15.07;;
66127;SDS011;52925;52.436;-1.952;2023-09-08T07:24:56;17.53;;;15.73;;
66127;SDS011;52925;52.436;-1.952;2023-09-08T07:26:17;18.90;;;16.87;;
66127;SDS011;52925;52.436;-1.952;2023-09-08T07:27:37;20.13;;;18.07;;
66127;SDS011;52925;52.436;-1.952;2023-09-08T07:28:58;20.33;;;18.23;;
66127;SDS011;52925;52.436;-1.952;2023-09-08T07:30:18;18.80;;;16.67;;
66127;SDS011;52925;52.436;-1.952;2023-09-08T07:31:39;19.50;;;17.60;;
66127;SDS011;52925;52.436;-1.952;2023-09-08T07:32:59;20.00;;;17.83;;
66127;SDS011;52925;52.436;-1.952;2023-09-08T07:34:21;19.33;;;17.30;;
66127;SDS011;52925;52.436;-1.952;2023-09-08T07:35:40;17.53;;;15.73;;
66127;SDS011;52925;52.436;-1.952;2023-09-08T07:37:02;19.27;;;17.17;;
66127;SDS011;52925;52.436;-1.952;2023-09-08T07:38:22;21.93;;;19.63;;
66127;SDS011;52925;52.436;-1.952;2023-09-08T07:39:44;22.43;;;19.97;;
66127;SDS011;52925;52.436;-1.952;2023-09-08T07:41:05;19.50;;;17.50;;
66127;SDS011;52925;52.436;-1.952;2023-09-08T07:42:26;20.90;;;18.67;;
66127;SDS011;52925;52.436;-1.952;2023-09-08T07:43:46;22.57;;;19.77;;
66127;SDS011;52925;52.436;-1.952;2023-09-08T07:45:11;21.77;;;18.53;;
66127;SDS011;52925;52.436;-1.952;2023-09-08T07:46:31;19.03;;;17.03;;
66127;SDS011;52925;52.436;-1.952;2023-09-08T07:47:52;21.00;;;18.80;;
66127;SDS011;52925;52.436;-1.952;2023-09-08T07:49:11;21.07;;;18.80;;
66127;SDS011;52925;52.436;-1.952;2023-09-08T07:50:33;23.47;;;19.57;;
66127;SDS011;52925;52.436;-1.952;2023-09-08T07:51:53;21.47;;;19.13;;